Time;durP1;ratioP1;P1;durP2;ratioP2;P2;SDS_P1;SDS_P2;PMS_P1;PMS_P2;Temp;Humidity;BMP_temperature;BMP_pressure;BME280_temperature;BME280_humidity;BME280_pressure;Samples;Min_cycle;Max_cycle;Signal;HPM_P1;HPM_P2
2021/12/25 04:01:09;;;;;;;2.20;1.10;;;10.70;85.90;;;;;;5932365;22;20560;-75
2021/12/25 04:03:45;;;;;;;2.43;1.00;;;10.70;86.50;;;;;;5033318;28;20451;-75
2021/12/25 04:06:12;;;;;;;2.20;1.00;;;10.70;86.20;;;;;;5033340;28;20427;-74
2021/12/25 04:08:42;;;;;;;2.20;1.10;;;10.40;87.10;;;;;;5033282;28;20444;-74
2021/12/25 04:11:13;;;;;;;2.20;1.30;;;10.50;87.50;;;;;;5033229;28;20471;-74
2021/12/25 04:13:40;;;;;;;2.20;0.93;;;10.60;86.90;;;;;;5033248;28;20477;-74
2021/12/25 04:16:08;;;;;;;2.30;1.10;;;10.50;87.10;;;;;;5057460;22;21064;-74
2021/12/25 04:18:35;;;;;;;2.47;1.30;;;10.70;86.90;;;;;;5033174;28;20439;-75
2021/12/25 04:21:01;;;;;;;2.60;1.30;;;10.80;86.50;;;;;;5032765;28;20989;-73
2021/12/25 04:23:29;;;;;;;2.23;1.20;;;10.90;86.10;;;;;;5035548;28;20469;-74
2021/12/25 04:25:57;;;;;;;2.20;1.00;;;11.00;85.80;;;;;;5037040;28;20486;-75
2021/12/25 04:28:35;;;;;;;2.50;1.20;;;11.00;85.40;;;;;;5037054;28;20443;-74
2021/12/25 04:31:20;;;;;;;2.10;1.00;;;11.10;85.30;;;;;;5036996;28;20960;-74
2021/12/25 04:48:00;;;;;;;2.73;1.17;;;10.60;85.90;;;;;;5036933;28;20442;-75
2021/12/25 05:04:15;;;;;;;2.87;1.70;;;10.40;86.50;;;;;;5036504;28;20462;-74
2021/12/25 05:06:43;;;;;;;2.80;1.67;;;10.40;86.90;;;;;;5036348;28;20481;-75
2021/12/25 05:09:09;;;;;;;2.73;1.77;;;10.50;86.60;;;;;;5036319;28;20443;-74
2021/12/25 05:11:36;;;;;;;2.90;1.93;;;10.50;86.10;;;;;;5036244;28;20499;-74
2021/12/25 05:14:03;;;;;;;2.93;1.90;;;10.60;86.10;;;;;;5036228;28;20442;-74
2021/12/25 05:16:29;;;;;;;2.73;1.73;;;10.70;85.70;;;;;;5035940;28;20529;-73
2021/12/25 05:18:56;;;;;;;2.70;1.50;;;10.70;85.50;;;;;;5035816;28;20994;-75
2021/12/25 05:21:23;;;;;;;3.00;1.90;;;10.80;85.30;;;;;;5035991;28;20475;-75
2021/12/25 05:23:51;;;;;;;3.00;1.80;;;10.80;85.30;;;;;;5036291;28;20451;-72
2021/12/25 05:26:18;;;;;;;3.20;2.17;;;10.80;85.00;;;;;;5036191;28;20459;-73
2021/12/25 05:28:46;;;;;;;3.10;2.00;;;10.80;85.00;;;;;;5035645;28;20804;-72
2021/12/25 05:31:16;;;;;;;2.77;1.70;;;10.80;84.90;;;;;;5035946;28;20449;-72
2021/12/25 05:33:43;;;;;;;2.90;1.90;;;10.90;84.80;;;;;;5034926;28;20447;-73
2021/12/25 05:36:11;;;;;;;3.73;2.23;;;10.90;84.60;;;;;;5035358;28;20513;-73
2021/12/25 05:38:37;;;;;;;3.33;2.30;;;10.80;84.70;;;;;;5035744;28;20451;-72
2021/12/25 05:41:07;;;;;;;2.70;1.80;;;10.80;84.80;;;;;;5035617;28;20475;-73
2021/12/25 05:43:34;;;;;;;2.87;1.90;;;10.90;84.70;;;;;;5035348;28;21000;-72
2021/12/25 05:46:00;;;;;;;2.90;1.80;;;10.90;84.70;;;;;;5035509;28;20513;-72
2021/12/25 05:48:27;;;;;;;2.50;1.70;;;10.80;84.70;;;;;;5035568;28;20447;-73
2021/12/25 05:50:54;;;;;;;2.87;1.93;;;10.60;84.80;;;;;;5035512;28;20443;-72
2021/12/25 05:53:20;;;;;;;3.40;2.57;;;10.20;86.50;;;;;;5035455;28;20447;-72
2021/12/25 05:55:47;;;;;;;2.70;1.80;;;10.10;87.20;;;;;;5035465;28;20518;-73
2021/12/25 05:58:15;;;;;;;3.30;2.17;;;9.80;87.80;;;;;;5035075;28;20942;-73
2021/12/25 06:00:42;;;;;;;3.10;2.13;;;9.40;89.50;;;;;;5035069;28;20935;-72
2021/12/25 06:03:09;;;;;;;3.00;2.00;;;9.30;90.60;;;;;;5034897;28;20834;-73
2021/12/25 06:05:36;;;;;;;3.30;2.60;;;9.20;90.90;;;;;;5035191;28;20537;-72
2021/12/25 06:08:03;;;;;;;3.47;2.33;;;9.10;91.70;;;;;;5035255;28;20574;-72
2021/12/25 06:10:30;;;;;;;2.60;1.50;;;9.20;92.40;;;;;;5035158;28;20447;-72
2021/12/25 06:12:59;;;;;;;2.90;2.00;;;9.50;91.60;;;;;;5034798;28;20938;-72
2021/12/25 06:15:28;;;;;;;3.30;2.37;;;9.50;90.30;;;;;;5034855;28;20451;-73
2021/12/25 06:17:54;;;;;;;4.57;2.23;;;9.60;90.60;;;;;;5035063;28;20432;-73
2021/12/25 06:20:21;;;;;;;3.03;1.93;;;9.70;89.70;;;;;;5034981;28;20443;-72
2021/12/25 06:22:48;;;;;;;3.37;2.23;;;9.80;89.40;;;;;;5034814;28;20479;-72
2021/12/25 06:25:15;;;;;;;3.30;2.40;;;9.80;88.80;;;;;;5034564;28;20941;-72
2021/12/25 06:27:41;;;;;;;3.77;3.20;;;9.80;89.30;;;;;;5034517;28;20453;-73
2021/12/25 06:30:10;;;;;;;3.00;2.10;;;9.90;89.00;;;;;;5034769;28;20447;-72
2021/12/25 06:32:38;;;;;;;3.70;3.03;;;10.10;88.20;;;;;;5035401;28;20448;-73
2021/12/25 06:35:05;;;;;;;3.50;2.30;;;10.30;87.60;;;;;;5034606;28;20497;-72
2021/12/25 06:37:32;;;;;;;2.97;1.83;;;10.30;86.90;;;;;;5034504;28;20467;-73
2021/12/25 06:39:58;;;;;;;3.33;2.70;;;10.30;87.30;;;;;;5034459;28;20447;-73
2021/12/25 06:42:25;;;;;;;3.43;2.33;;;10.30;87.20;;;;;;5034376;28;20486;-73
2021/12/25 06:44:52;;;;;;;3.37;2.70;;;10.30;87.20;;;;;;5034158;28;20466;-73
2021/12/25 06:47:18;;;;;;;3.40;2.90;;;10.50;86.80;;;;;;5034190;28;20463;-73
2021/12/25 06:49:46;;;;;;;3.60;2.90;;;10.50;86.30;;;;;;5034385;28;20447;-73
2021/12/25 06:52:13;;;;;;;3.43;2.50;;;10.40;86.30;;;;;;5034283;28;20497;-72
2021/12/25 06:54:40;;;;;;;2.87;1.97;;;10.40;86.70;;;;;;5034285;28;20444;-72
2021/12/25 06:57:07;;;;;;;3.37;2.10;;;10.50;86.60;;;;;;5034135;28;20471;-73
2021/12/25 06:59:34;;;;;;;3.57;2.20;;;10.30;86.50;;;;;;5034090;28;20448;-72
2021/12/25 07:02:00;;;;;;;3.60;2.27;;;10.40;87.00;;;;;;5034018;28;20483;-73
2021/12/25 07:04:27;;;;;;;3.40;2.53;;;10.50;86.50;;;;;;5034109;28;20509;-71
2021/12/25 07:06:55;;;;;;;3.30;2.30;;;10.50;86.30;;;;;;5033980;28;20883;-74
2021/12/25 07:09:22;;;;;;;2.90;2.20;;;10.40;86.60;;;;;;5034073;28;20501;-75
2021/12/25 07:11:49;;;;;;;3.20;2.10;;;10.40;87.10;;;;;;5033975;28;20435;-74
2021/12/25 07:14:16;;;;;;;2.70;1.70;;;10.40;87.20;;;;;;5033974;28;20493;-74
2021/12/25 07:16:42;;;;;;;2.67;1.70;;;10.50;87.10;;;;;;5033533;28;20491;-75
2021/12/25 07:19:12;;;;;;;3.10;1.93;;;10.60;86.70;;;;;;5034172;28;20521;-75
2021/12/25 07:21:39;;;;;;;2.97;1.37;;;10.70;86.50;;;;;;5033742;28;20562;-74
2021/12/25 07:24:09;;;;;;;2.97;1.43;;;10.60;86.70;;;;;;5033829;28;20448;-75
2021/12/25 07:26:37;;;;;;;2.40;1.40;;;10.60;87.30;;;;;;5033493;28;20477;-75
2021/12/25 07:29:04;;;;;;;2.40;1.20;;;10.60;87.20;;;;;;5033769;28;20456;-74
2021/12/25 07:31:31;;;;;;;3.10;1.77;;;10.60;87.60;;;;;;5033666;28;20489;-74
2021/12/25 07:33:58;;;;;;;2.50;1.27;;;10.60;88.00;;;;;;5033634;28;20439;-74
2021/12/25 07:36:24;;;;;;;2.63;1.33;;;10.60;87.90;;;;;;5033858;28;20471;-75
2021/12/25 07:38:53;;;;;;;2.50;1.40;;;10.60;88.10;;;;;;5033309;28;20943;-75
2021/12/25 07:41:22;;;;;;;2.37;1.40;;;10.80;87.90;;;;;;5033506;28;20455;-75
2021/12/25 07:43:48;;;;;;;2.70;1.57;;;10.90;87.40;;;;;;5033524;28;20498;-74
2021/12/25 07:46:15;;;;;;;3.07;1.70;;;11.00;87.20;;;;;;5033142;28;20470;-74
2021/12/25 07:48:43;;;;;;;2.80;1.60;;;10.90;87.20;;;;;;5033458;28;20455;-75
2021/12/25 07:51:10;;;;;;;2.67;1.63;;;11.00;87.30;;;;;;5033451;28;20450;-75
2021/12/25 07:53:36;;;;;;;2.83;1.60;;;11.00;87.00;;;;;;5033102;28;20447;-73
2021/12/25 07:56:03;;;;;;;2.90;1.60;;;10.80;87.20;;;;;;5033335;28;20513;-75
2021/12/25 07:58:31;;;;;;;2.63;1.80;;;10.80;87.70;;;;;;5032285;28;20871;-74
2021/12/25 08:00:59;;;;;;;3.03;1.77;;;10.80;88.10;;;;;;5033038;28;20447;-74
2021/12/25 08:03:26;;;;;;;2.83;1.50;;;10.90;87.60;;;;;;5032922;28;20857;-75
2021/12/25 08:05:52;;;;;;;2.60;1.60;;;11.00;87.50;;;;;;5033205;28;20536;-75
2021/12/25 08:08:19;;;;;;;2.70;1.57;;;11.10;87.20;;;;;;5033275;28;20451;-75
2021/12/25 08:10:46;;;;;;;2.80;1.70;;;11.20;87.10;;;;;;5034303;28;20447;-75
2021/12/25 08:13:15;;;;;;;2.50;1.30;;;11.20;86.90;;;;;;5032888;28;20957;-75
2021/12/25 08:15:43;;;;;;;2.97;1.90;;;11.30;86.80;;;;;;5033029;28;20483;-75
2021/12/25 08:18:10;;;;;;;3.17;1.40;;;11.40;86.30;;;;;;5033207;28;20427;-75
2021/12/25 08:20:37;;;;;;;2.80;1.93;;;11.40;86.00;;;;;;5032879;28;20934;-75
2021/12/25 08:23:04;;;;;;;2.67;1.57;;;11.40;86.00;;;;;;5033060;28;20486;-74
2021/12/25 08:25:31;;;;;;;3.13;1.67;;;11.40;86.00;;;;;;5033021;28;20452;-75
2021/12/25 08:27:58;;;;;;;3.30;1.80;;;11.40;86.00;;;;;;5033096;28;20870;-74
2021/12/25 08:30:27;;;;;;;3.10;2.20;;;11.50;85.60;;;;;;5033061;28;20451;-75
2021/12/25 08:32:57;;;;;;;3.50;2.40;;;11.50;85.50;;;;;;5033047;28;20482;-74
2021/12/25 08:35:25;;;;;;;3.10;1.60;;;11.20;85.80;;;;;;5032958;28;20439;-75
2021/12/25 08:37:52;;;;;;;4.83;2.13;;;11.20;86.40;;;;;;5032963;28;20506;-74
2021/12/25 08:40:19;;;;;;;3.30;2.50;;;11.20;86.30;;;;;;5032964;28;20859;-75
2021/12/25 08:42:51;;;;;;;3.10;2.10;;;10.90;87.10;;;;;;5032524;28;20894;-74
2021/12/25 08:45:40;;;;;;;2.90;2.10;;;10.90;87.90;;;;;;5032904;28;20443;-75
2021/12/25 08:48:11;;;;;;;2.80;1.73;;;10.90;87.70;;;;;;5032923;28;20497;-74
2021/12/25 08:50:38;;;;;;;2.93;1.80;;;10.80;87.60;;;;;;5032929;28;20431;-74
2021/12/25 08:53:05;;;;;;;2.63;1.70;;;10.80;88.50;;;;;;5032875;28;20439;-74
2021/12/25 08:55:33;;;;;;;2.73;1.67;;;10.90;88.20;;;;;;5032709;28;20497;-75
2021/12/25 08:57:59;;;;;;;2.70;1.83;;;11.00;88.20;;;;;;5032806;28;20478;-74
2021/12/25 09:00:26;;;;;;;2.90;2.00;;;10.90;87.90;;;;;;5032785;28;20451;-74
2021/12/25 09:02:53;;;;;;;2.70;1.73;;;11.00;88.10;;;;;;5033013;28;21006;-75
2021/12/25 09:05:21;;;;;;;2.60;1.60;;;11.00;88.10;;;;;;5032660;28;20447;-75
2021/12/25 09:07:48;;;;;;;3.13;2.13;;;11.10;87.50;;;;;;5032713;28;20860;-75
2021/12/25 09:10:15;;;;;;;3.40;2.20;;;11.10;87.70;;;;;;5036033;28;20494;-75
2021/12/25 09:12:43;;;;;;;3.47;2.30;;;11.20;87.40;;;;;;5036272;28;20443;-75
2021/12/25 09:15:11;;;;;;;3.30;2.40;;;11.40;86.90;;;;;;5036242;28;20458;-75
2021/12/25 09:17:38;;;;;;;2.77;1.60;;;11.50;86.40;;;;;;5035946;28;20561;-75
2021/12/25 09:20:06;;;;;;;3.07;2.47;;;11.60;86.20;;;;;;5036147;28;20450;-75
2021/12/25 09:22:34;;;;;;;2.80;1.70;;;11.60;85.80;;;;;;5035977;28;20482;-75
2021/12/25 09:25:02;;;;;;;2.83;2.00;;;11.60;85.80;;;;;;5036021;28;20493;-75
2021/12/25 09:27:28;;;;;;;3.17;2.23;;;11.70;85.60;;;;;;5035940;28;20467;-74
2021/12/25 09:29:55;;;;;;;3.03;1.50;;;11.70;85.50;;;;;;5035960;28;20520;-75
2021/12/25 09:32:22;;;;;;;2.50;1.50;;;11.80;85.00;;;;;;5035896;28;20451;-75
2021/12/25 09:34:49;;;;;;;2.30;1.23;;;11.70;85.10;;;;;;5035830;28;20455;-74
2021/12/25 09:38:10;;;;;;;2.90;1.53;;;11.80;85.00;;;;;;5035751;28;20471;-75
2021/12/25 09:40:38;;;;;;;2.87;1.73;;;11.80;84.80;;;;;;5013764;28;20962;-74
2021/12/25 09:43:05;;;;;;;2.80;1.60;;;11.90;84.60;;;;;;5035602;28;20895;-74
2021/12/25 09:45:32;;;;;;;2.63;1.60;;;11.80;84.50;;;;;;5035577;28;20474;-75
2021/12/25 09:47:59;;;;;;;2.97;1.67;;;11.70;84.50;;;;;;5035596;28;20859;-75
2021/12/25 09:50:26;;;;;;;2.77;1.60;;;11.80;84.70;;;;;;5035749;28;20447;-75
2021/12/25 09:52:53;;;;;;;3.00;1.60;;;11.70;84.50;;;;;;5035657;28;20852;-74
2021/12/25 09:55:19;;;;;;;2.50;1.70;;;11.80;84.50;;;;;;5035390;28;20443;-75
2021/12/25 09:57:47;;;;;;;2.57;1.47;;;11.80;84.60;;;;;;5035453;28;20451;-74
2021/12/25 10:00:18;;;;;;;2.73;1.40;;;11.90;84.30;;;;;;5035364;28;20443;-74
2021/12/25 10:02:47;;;;;;;2.63;1.40;;;11.80;84.30;;;;;;5035236;28;20463;-75
2021/12/25 10:05:22;;;;;;;2.70;1.70;;;11.70;84.70;;;;;;5035074;28;20942;-75
2021/12/25 10:08:00;;;;;;;2.73;1.33;;;11.70;84.70;;;;;;5035807;28;20427;-74
2021/12/25 10:10:36;;;;;;;2.60;1.30;;;11.70;84.90;;;;;;5034918;28;20431;-74
2021/12/25 10:13:04;;;;;;;2.63;1.63;;;11.70;84.60;;;;;;5035129;28;20455;-74
2021/12/25 10:15:31;;;;;;;2.93;1.20;;;11.60;85.20;;;;;;5035264;28;20447;-75
2021/12/25 10:18:00;;;;;;;2.67;1.50;;;11.70;84.90;;;;;;5168917;22;20498;-75
2021/12/25 10:20:29;;;;;;;2.70;1.40;;;11.70;84.80;;;;;;5054229;28;20438;-74
2021/12/25 10:23:07;;;;;;;2.30;1.20;;;11.70;84.60;;;;;;5054985;28;20478;-74
2021/12/25 10:25:43;;;;;;;2.63;1.30;;;11.60;85.10;;;;;;5055108;28;20434;-74
2021/12/25 10:28:11;;;;;;;2.40;1.10;;;11.60;85.20;;;;;;5054637;28;20477;-74
2021/12/25 10:30:49;;;;;;;2.70;1.20;;;11.60;84.70;;;;;;5054833;28;20454;-74
2021/12/25 10:33:33;;;;;;;2.73;0.90;;;11.60;84.80;;;;;;5054547;28;20960;-75
2021/12/25 10:36:04;;;;;;;2.50;1.30;;;11.80;84.70;;;;;;5054722;28;20481;-74
2021/12/25 10:38:30;;;;;;;2.10;0.93;;;11.80;84.50;;;;;;5054642;28;20434;-74
2021/12/25 10:41:20;;;;;;;2.10;1.00;;;11.80;84.50;;;;;;5054640;28;20450;-75
2021/12/25 10:43:52;;;;;;;2.10;0.90;;;12.00;84.20;;;;;;5054424;28;20466;-74
2021/12/25 10:46:18;;;;;;;2.67;1.33;;;12.10;84.30;;;;;;5054184;28;20974;-74
2021/12/25 10:48:46;;;;;;;2.57;1.17;;;12.20;84.40;;;;;;5054508;28;20450;-74
2021/12/25 10:51:28;;;;;;;2.50;1.33;;;12.40;84.70;;;;;;5054370;28;20791;-74
2021/12/25 10:53:56;;;;;;;2.63;1.50;;;12.30;82.70;;;;;;5054064;28;20937;-74
2021/12/25 10:56:23;;;;;;;2.23;1.17;;;12.40;83.80;;;;;;5054162;28;20532;-75
2021/12/25 10:58:51;;;;;;;2.40;1.03;;;12.60;84.10;;;;;;5054248;28;20450;-75
2021/12/25 11:01:18;;;;;;;2.30;0.90;;;12.70;81.80;;;;;;5054250;28;20496;-75
2021/12/25 11:03:46;;;;;;;2.43;1.10;;;12.80;82.50;;;;;;5053651;28;21092;-75
2021/12/25 11:06:16;;;;;;;2.10;0.90;;;13.10;83.00;;;;;;5054023;28;20496;-75
2021/12/25 11:08:45;;;;;;;2.50;0.90;;;13.30;81.20;;;;;;5054091;28;20458;-75
2021/12/25 11:11:13;;;;;;;2.17;1.00;;;13.50;81.60;;;;;;5053926;28;20522;-74
2021/12/25 11:13:41;;;;;;;2.20;1.00;;;13.50;81.10;;;;;;5053880;28;20442;-74
2021/12/25 11:16:23;;;;;;;2.10;0.80;;;13.40;80.20;;;;;;5053756;28;20500;-75
2021/12/25 11:19:00;;;;;;;2.10;0.80;;;12.80;80.50;;;;;;5053811;28;20803;-75
2021/12/25 11:21:27;;;;;;;2.20;1.00;;;12.70;82.00;;;;;;5053842;28;20526;-75
2021/12/25 11:24:08;;;;;;;2.30;0.90;;;12.60;82.90;;;;;;5053542;28;20586;-75
2021/12/25 11:26:35;;;;;;;2.20;0.90;;;12.70;82.40;;;;;;5053533;28;20556;-75
2021/12/25 11:29:02;;;;;;;2.30;0.93;;;12.50;81.60;;;;;;5053669;28;20442;-75
2021/12/25 11:31:31;;;;;;;2.27;0.90;;;12.50;81.80;;;;;;5053543;28;20450;-75
2021/12/25 11:33:58;;;;;;;2.03;0.70;;;12.60;82.40;;;;;;5053570;28;20529;-75
2021/12/25 11:36:24;;;;;;;2.07;0.83;;;12.70;82.00;;;;;;5053574;28;20466;-74
2021/12/25 11:38:52;;;;;;;2.10;0.80;;;12.70;81.50;;;;;;5053232;28;21009;-74
2021/12/25 11:41:18;;;;;;;3.50;0.93;;;12.80;81.60;;;;;;5053546;28;20454;-75
2021/12/25 11:43:47;;;;;;;2.07;0.87;;;12.90;81.50;;;;;;5053353;28;20474;-75
2021/12/25 11:46:15;;;;;;;2.07;0.90;;;12.80;80.90;;;;;;5053375;28;20474;-75
2021/12/25 11:48:44;;;;;;;2.00;0.70;;;12.70;81.00;;;;;;5053300;28;20897;-75
2021/12/25 11:51:28;;;;;;;2.00;0.70;;;12.70;81.40;;;;;;5053284;28;20450;-75
2021/12/25 11:54:08;;;;;;;3.43;0.90;;;12.60;81.90;;;;;;5053010;28;20813;-75
2021/12/25 11:56:50;;;;;;;2.20;0.83;;;12.40;82.00;;;;;;5053720;28;20921;-75
2021/12/25 11:59:18;;;;;;;2.13;0.87;;;12.40;82.10;;;;;;5053302;28;20477;-75
2021/12/25 12:01:48;;;;;;;2.00;0.70;;;12.40;82.40;;;;;;5053212;28;20451;-75
2021/12/25 12:04:19;;;;;;;2.10;0.93;;;12.40;82.50;;;;;;5053148;28;20489;-75
2021/12/25 12:06:58;;;;;;;2.40;1.00;;;12.50;82.50;;;;;;5053144;28;20462;-75
2021/12/25 12:09:27;;;;;;;2.13;0.90;;;12.50;82.60;;;;;;5053131;28;20499;-75
2021/12/25 12:12:16;;;;;;;2.10;0.80;;;12.60;82.80;;;;;;5053174;28;20454;-75
2021/12/25 12:14:43;;;;;;;2.80;1.20;;;12.60;82.50;;;;;;5053211;28;20434;-75
2021/12/25 12:17:26;;;;;;;2.10;0.97;;;12.50;82.40;;;;;;5052816;28;20475;-76
2021/12/25 12:19:55;;;;;;;2.17;0.97;;;12.60;82.30;;;;;;5053317;28;20430;-75
2021/12/25 12:25:30;;;;;;;2.30;1.10;;;12.40;82.30;;;;;;5044022;28;20427;-75
2021/12/25 12:27:58;;;;;;;2.53;1.07;;;12.40;82.60;;;;;;5052995;28;20552;-75
2021/12/25 12:30:50;;;;;;;2.23;1.00;;;12.50;82.50;;;;;;5052976;28;20442;-75
2021/12/25 12:33:37;;;;;;;2.20;0.93;;;12.50;82.50;;;;;;5053005;28;20423;-75
2021/12/25 12:36:22;;;;;;;2.00;0.70;;;12.60;82.60;;;;;;5052941;28;20422;-75
2021/12/25 12:38:53;;;;;;;2.20;1.00;;;12.70;82.30;;;;;;5052512;28;20976;-75
2021/12/25 12:41:25;;;;;;;2.10;0.87;;;12.80;82.00;;;;;;5052787;28;20436;-75
2021/12/25 12:43:55;;;;;;;2.43;0.83;;;12.70;81.50;;;;;;5054191;28;20488;-76
2021/12/25 12:46:22;;;;;;;2.03;0.80;;;12.70;81.80;;;;;;5056574;28;20477;-75
2021/12/25 12:49:05;;;;;;;2.20;0.97;;;12.70;82.20;;;;;;5056606;28;20446;-74
2021/12/25 12:51:35;;;;;;;2.17;0.90;;;12.80;82.10;;;;;;5056608;28;20449;-75
2021/12/25 12:54:02;;;;;;;2.60;1.40;;;12.90;82.40;;;;;;5056498;28;20442;-75
2021/12/25 12:56:29;;;;;;;2.20;1.00;;;13.00;82.40;;;;;;5056409;28;20823;-75
2021/12/25 12:58:57;;;;;;;2.57;0.90;;;13.00;81.90;;;;;;5056493;28;20480;-75
2021/12/25 13:01:25;;;;;;;2.03;0.80;;;13.10;81.90;;;;;;5056201;28;20449;-75
2021/12/25 13:03:56;;;;;;;2.10;0.90;;;13.10;81.80;;;;;;5055985;28;20992;-75
2021/12/25 13:06:27;;;;;;;2.20;0.97;;;13.10;81.10;;;;;;5056301;28;20549;-75
2021/12/25 13:08:55;;;;;;;2.90;1.60;;;13.10;81.20;;;;;;5056626;28;20441;-75
2021/12/25 13:11:27;;;;;;;2.70;0.90;;;13.10;80.90;;;;;;5056136;28;20442;-75
2021/12/25 13:13:57;;;;;;;2.10;0.80;;;13.00;80.70;;;;;;5055880;28;20428;-75
2021/12/25 13:16:28;;;;;;;2.07;0.80;;;12.90;80.40;;;;;;5055908;28;20492;-74
2021/12/25 13:18:57;;;;;;;2.00;0.67;;;12.60;80.90;;;;;;5056018;28;20437;-75
2021/12/25 13:21:27;;;;;;;2.10;0.87;;;12.50;81.90;;;;;;5056417;28;20472;-75
2021/12/25 13:23:58;;;;;;;2.50;0.90;;;12.60;82.40;;;;;;5056001;28;20486;-75
2021/12/25 13:26:32;;;;;;;2.50;1.07;;;12.60;82.20;;;;;;5055804;28;20562;-75
2021/12/25 13:28:59;;;;;;;2.00;0.80;;;12.50;82.20;;;;;;5055966;28;20839;-74
2021/12/25 13:31:29;;;;;;;2.30;1.00;;;12.60;82.20;;;;;;5055616;28;20999;-75
2021/12/25 13:33:58;;;;;;;2.10;1.00;;;12.60;82.50;;;;;;5055746;28;20504;-75
2021/12/25 13:36:26;;;;;;;2.60;0.93;;;12.60;81.50;;;;;;5055662;28;20466;-75
2021/12/25 13:38:57;;;;;;;3.50;0.90;;;12.70;81.60;;;;;;5055981;28;20446;-74
2021/12/25 13:41:30;;;;;;;2.30;1.10;;;12.70;81.30;;;;;;5055645;28;20453;-74
2021/12/25 13:44:08;;;;;;;2.20;1.00;;;12.60;81.40;;;;;;5055491;28;20985;-75
2021/12/25 13:46:41;;;;;;;2.23;1.03;;;12.60;81.10;;;;;;5055421;28;20465;-75
2021/12/25 13:49:26;;;;;;;2.30;1.00;;;12.60;81.50;;;;;;5055444;28;20523;-74
2021/12/25 13:51:53;;;;;;;2.20;1.00;;;12.50;81.50;;;;;;5055437;28;20492;-75
2021/12/25 13:54:22;;;;;;;2.10;0.80;;;12.60;81.70;;;;;;5055887;28;20776;-75
2021/12/25 13:56:49;;;;;;;2.20;0.90;;;12.50;81.50;;;;;;5054500;28;20466;-75
2021/12/25 13:59:16;;;;;;;2.10;0.80;;;12.60;81.40;;;;;;5055403;28;20442;-75
2021/12/25 14:01:43;;;;;;;2.00;0.70;;;12.60;81.30;;;;;;5055285;28;20450;-76
2021/12/25 14:04:12;;;;;;;2.70;1.20;;;12.60;81.40;;;;;;5055255;28;20924;-75
2021/12/25 14:06:39;;;;;;;2.57;1.20;;;12.50;80.80;;;;;;5054858;28;20974;-76
2021/12/25 14:09:06;;;;;;;2.20;0.90;;;12.50;81.10;;;;;;5054831;28;21004;-73
2021/12/25 14:11:35;;;;;;;2.30;1.00;;;12.40;81.30;;;;;;5055038;28;20484;-76
2021/12/25 14:14:06;;;;;;;2.00;0.70;;;12.50;81.70;;;;;;5054635;28;20859;-76
2021/12/25 14:16:37;;;;;;;2.53;1.00;;;12.40;81.40;;;;;;5054777;28;20482;-76
2021/12/25 14:19:07;;;;;;;2.20;0.93;;;12.50;81.80;;;;;;5055627;28;20438;-76
2021/12/25 14:21:34;;;;;;;2.50;1.37;;;12.50;81.80;;;;;;5054617;28;20439;-76
2021/12/25 14:24:03;;;;;;;2.40;1.20;;;12.40;81.90;;;;;;5054560;28;21050;-76
2021/12/25 14:26:29;;;;;;;3.20;1.50;;;12.40;81.90;;;;;;5054443;28;21051;-76
2021/12/25 14:28:58;;;;;;;2.50;1.17;;;12.50;82.00;;;;;;5054714;28;20442;-76
2021/12/25 14:31:24;;;;;;;2.23;0.83;;;12.50;82.00;;;;;;5054795;28;20450;-76
2021/12/25 14:33:57;;;;;;;2.17;0.90;;;12.60;82.00;;;;;;5054623;28;20495;-76
2021/12/25 14:36:24;;;;;;;2.30;1.10;;;12.60;82.20;;;;;;5054392;28;20532;-76
2021/12/25 14:38:51;;;;;;;2.30;1.00;;;12.70;82.40;;;;;;5054145;28;20500;-75
2021/12/25 14:41:26;;;;;;;2.20;1.20;;;12.70;82.40;;;;;;5054147;28;20500;-75
2021/12/25 14:43:53;;;;;;;2.40;1.20;;;12.70;82.40;;;;;;5054140;28;20516;-76
2021/12/25 14:46:23;;;;;;;2.17;1.10;;;12.70;82.30;;;;;;5054177;28;20469;-76
2021/12/25 14:48:51;;;;;;;2.30;1.20;;;12.70;82.20;;;;;;5054092;28;20454;-76
2021/12/25 14:51:20;;;;;;;2.40;1.30;;;12.70;82.20;;;;;;5053953;28;20496;-76
2021/12/25 14:53:50;;;;;;;2.30;1.00;;;12.60;82.00;;;;;;5053809;28;20817;-76
2021/12/25 14:56:20;;;;;;;2.40;1.10;;;12.40;82.40;;;;;;5054057;28;20561;-75
2021/12/25 14:58:49;;;;;;;2.20;1.00;;;12.40;82.60;;;;;;5054391;28;20864;-76
2021/12/25 15:01:17;;;;;;;2.83;1.30;;;12.20;82.50;;;;;;5053644;28;20996;-75
2021/12/25 15:04:01;;;;;;;3.50;1.23;;;12.20;82.70;;;;;;5053896;28;20443;-75
2021/12/25 15:06:28;;;;;;;2.67;1.43;;;12.10;82.60;;;;;;5053612;28;20828;-76
2021/12/25 15:09:06;;;;;;;2.10;0.90;;;12.10;82.80;;;;;;5053462;28;20442;-76
2021/12/25 15:11:35;;;;;;;3.20;1.60;;;12.10;82.80;;;;;;5053825;28;20425;-76
2021/12/25 15:14:05;;;;;;;2.90;1.70;;;12.20;82.50;;;;;;5053881;28;20641;-76
2021/12/25 15:16:40;;;;;;;3.83;2.70;;;12.20;82.50;;;;;;5053610;28;20473;-76
2021/12/25 15:19:08;;;;;;;3.50;2.17;;;12.20;82.60;;;;;;5053849;28;20460;-76
2021/12/25 15:21:46;;;;;;;3.27;2.33;;;12.20;82.70;;;;;;5053772;28;20434;-76
2021/12/25 15:24:16;;;;;;;2.97;2.20;;;12.10;82.70;;;;;;5053633;28;20527;-76
2021/12/25 15:26:45;;;;;;;3.17;1.70;;;12.10;83.00;;;;;;5053208;28;20910;-76
2021/12/25 15:29:12;;;;;;;3.20;2.37;;;12.10;83.10;;;;;;5053847;28;20442;-76
2021/12/25 15:31:40;;;;;;;4.30;2.87;;;12.10;83.10;;;;;;5053595;28;20447;-76
2021/12/25 15:34:12;;;;;;;4.13;2.50;;;12.10;83.00;;;;;;5053275;28;20946;-76
2021/12/25 15:36:42;;;;;;;3.50;2.57;;;12.10;83.00;;;;;;5053488;28;20470;-76
2021/12/25 15:39:15;;;;;;;4.60;3.00;;;12.10;82.80;;;;;;5053815;28;20440;-76
2021/12/25 15:41:42;;;;;;;3.90;2.53;;;12.10;83.00;;;;;;5053410;28;20500;-75
2021/12/25 15:44:09;;;;;;;3.70;2.70;;;12.10;83.00;;;;;;5053068;28;20964;-76
2021/12/25 15:46:36;;;;;;;4.13;2.80;;;12.10;82.90;;;;;;5053275;28;20470;-76
2021/12/25 15:49:04;;;;;;;3.60;2.80;;;12.10;83.00;;;;;;5053006;28;20446;-76
2021/12/25 15:51:32;;;;;;;2.50;1.80;;;12.10;83.00;;;;;;5053270;28;20450;-76
2021/12/25 15:53:58;;;;;;;3.60;2.77;;;12.00;83.00;;;;;;5053289;28;20446;-75
2021/12/25 15:56:26;;;;;;;3.40;2.50;;;12.00;82.90;;;;;;5053141;28;20458;-76
2021/12/25 15:58:53;;;;;;;3.97;2.43;;;12.00;82.90;;;;;;5053241;28;20880;-76
2021/12/25 16:01:20;;;;;;;3.57;2.63;;;12.00;82.80;;;;;;5053179;28;20496;-76
2021/12/25 16:03:47;;;;;;;3.87;3.20;;;12.00;82.90;;;;;;5052795;28;20864;-76
2021/12/25 16:06:14;;;;;;;4.60;3.43;;;12.00;83.00;;;;;;5052983;28;20540;-76
2021/12/25 16:08:42;;;;;;;3.23;2.33;;;12.00;83.00;;;;;;5053094;28;20484;-75
2021/12/25 16:11:09;;;;;;;3.53;2.70;;;12.00;83.20;;;;;;5053057;28;20447;-76
2021/12/25 16:13:37;;;;;;;3.10;2.30;;;12.00;83.00;;;;;;5053078;28;20793;-76
2021/12/25 16:16:04;;;;;;;3.13;2.43;;;11.90;83.10;;;;;;5052834;28;20442;-76
2021/12/25 16:18:33;;;;;;;3.10;2.30;;;11.90;83.20;;;;;;5054987;28;20459;-76
2021/12/25 16:21:01;;;;;;;3.13;2.80;;;11.90;83.20;;;;;;5057457;28;20549;-76
2021/12/25 16:23:28;;;;;;;3.60;3.10;;;11.90;83.30;;;;;;5057069;28;20446;-76
2021/12/25 16:25:56;;;;;;;4.00;3.50;;;11.90;83.30;;;;;;5056841;28;20477;-76
2021/12/25 16:28:23;;;;;;;3.93;3.53;;;11.90;83.40;;;;;;5056947;28;20503;-76
2021/12/25 16:30:51;;;;;;;4.97;3.40;;;11.90;83.50;;;;;;5056953;28;20453;-76
2021/12/25 16:33:18;;;;;;;4.03;3.63;;;11.80;83.60;;;;;;5056798;28;20450;-76
2021/12/25 16:35:45;;;;;;;3.80;3.40;;;11.80;83.60;;;;;;5056836;28;20443;-75
2021/12/25 16:38:13;;;;;;;3.40;3.00;;;11.80;83.70;;;;;;5056785;28;20474;-76
2021/12/25 16:40:40;;;;;;;5.43;3.63;;;11.90;83.90;;;;;;5056745;28;20450;-76
2021/12/25 16:43:08;;;;;;;4.10;3.57;;;11.90;83.90;;;;;;5056726;28;20454;-76
2021/12/25 16:45:36;;;;;;;4.30;3.50;;;11.90;83.70;;;;;;5056554;28;20474;-76
2021/12/25 16:48:04;;;;;;;6.23;4.33;;;11.90;83.60;;;;;;5056512;28;20527;-76
2021/12/25 16:50:31;;;;;;;11.30;6.73;;;11.60;84.10;;;;;;5056217;28;20984;-76
2021/12/25 16:52:57;;;;;;;11.73;5.70;;;11.60;84.20;;;;;;5056468;28;20446;-75
2021/12/25 16:55:25;;;;;;;38.07;13.30;;;11.60;84.00;;;;;;5056394;28;20438;-75
2021/12/25 16:57:51;;;;;;;38.20;11.67;;;11.50;84.10;;;;;;5056459;28;20465;-75
2021/12/25 17:00:25;;;;;;;35.47;10.57;;;11.50;84.10;;;;;;5056482;28;20496;-76
2021/12/25 17:02:53;;;;;;;60.97;14.50;;;11.40;84.40;;;;;;5056174;28;20812;-76
2021/12/25 17:05:19;;;;;;;51.23;14.20;;;11.40;84.40;;;;;;5055986;28;21057;-75
2021/12/25 17:07:46;;;;;;;47.27;12.33;;;11.30;84.40;;;;;;5056306;28;20470;-76
2021/12/25 17:10:13;;;;;;;32.37;8.23;;;11.30;84.40;;;;;;5056306;28;20446;-76
2021/12/25 17:12:42;;;;;;;50.50;14.20;;;11.30;84.60;;;;;;5055948;28;20804;-76
2021/12/25 17:15:12;;;;;;;31.07;11.33;;;11.30;84.50;;;;;;5056250;28;20446;-76
2021/12/25 17:17:40;;;;;;;24.40;7.30;;;11.20;84.40;;;;;;5055815;28;20532;-76
2021/12/25 17:20:09;;;;;;;26.17;7.77;;;11.20;84.50;;;;;;5056173;28;20480;-76
2021/12/25 17:22:36;;;;;;;75.33;17.33;;;11.20;84.40;;;;;;5056173;28;20442;-76
2021/12/25 17:25:03;;;;;;;13.67;7.43;;;11.20;84.00;;;;;;5055997;28;20478;-75
2021/12/25 17:27:30;;;;;;;16.93;6.67;;;11.20;84.00;;;;;;5055964;28;20466;-75